sensor_id;sensor_type;location;lat;lon;timestamp;P1;durP1;ratioP1;P2;durP2;ratioP2
27580;SDS011;63557;52.302;7.964;2023-12-14T00:01:38;26.25;;;12.77;;
27580;SDS011;63557;52.302;7.964;2023-12-14T00:06:40;23.10;;;12.20;;
27580;SDS011;63557;52.302;7.964;2023-12-14T00:11:40;26.40;;;12.10;;
27580;SDS011;63557;52.302;7.964;2023-12-14T00:16:41;18.43;;;11.27;;
27580;SDS011;63557;52.302;7.964;2023-12-14T00:21:41;24.63;;;12.17;;
27580;SDS011;63557;52.302;7.964;2023-12-14T00:26:42;18.20;;;11.63;;
27580;SDS011;63557;52.302;7.964;2023-12-14T00:31:42;19.65;;;11.48;;
27580;SDS011;63557;52.302;7.964;2023-12-14T00:36:42;20.43;;;11.43;;
27580;SDS011;63557;52.302;7.964;2023-12-14T00:41:43;20.15;;;11.85;;
27580;SDS011;63557;52.302;7.964;2023-12-14T00:46:43;18.88;;;11.48;;
27580;SDS011;63557;52.302;7.964;2023-12-14T00:51:44;17.40;;;10.70;;
27580;SDS011;63557;52.302;7.964;2023-12-14T00:56:44;20.88;;;11.32;;
27580;SDS011;63557;52.302;7.964;2023-12-14T01:01:44;17.23;;;11.90;;
27580;SDS011;63557;52.302;7.964;2023-12-14T01:06:45;21.63;;;11.32;;
27580;SDS011;63557;52.302;7.964;2023-12-14T01:11:45;21.83;;;12.55;;
27580;SDS011;63557;52.302;7.964;2023-12-14T01:16:46;24.70;;;12.23;;
27580;SDS011;63557;52.302;7.964;2023-12-14T01:21:46;24.23;;;13.77;;
27580;SDS011;63557;52.302;7.964;2023-12-14T01:26:47;24.15;;;13.98;;
27580;SDS011;63557;52.302;7.964;2023-12-14T01:31:47;28.23;;;14.70;;
27580;SDS011;63557;52.302;7.964;2023-12-14T01:36:47;20.87;;;13.17;;
27580;SDS011;63557;52.302;7.964;2023-12-14T01:41:48;19.83;;;12.30;;
27580;SDS011;63557;52.302;7.964;2023-12-14T01:46:49;21.05;;;12.38;;
27580;SDS011;63557;52.302;7.964;2023-12-14T01:51:49;22.30;;;13.02;;
27580;SDS011;63557;52.302;7.964;2023-12-14T01:56:50;19.60;;;12.57;;
27580;SDS011;63557;52.302;7.964;2023-12-14T02:01:54;21.02;;;13.05;;
27580;SDS011;63557;52.302;7.964;2023-12-14T02:06:56;18.77;;;13.25;;
27580;SDS011;63557;52.302;7.964;2023-12-14T02:11:56;17.53;;;12.70;;
27580;SDS011;63557;52.302;7.964;2023-12-14T02:16:57;19.02;;;13.05;;
27580;SDS011;63557;52.302;7.964;2023-12-14T02:21:57;27.20;;;14.40;;
27580;SDS011;63557;52.302;7.964;2023-12-14T02:26:58;21.83;;;13.20;;
27580;SDS011;63557;52.302;7.964;2023-12-14T02:31:58;23.30;;;14.70;;
27580;SDS011;63557;52.302;7.964;2023-12-14T02:36:59;24.08;;;15.35;;
27580;SDS011;63557;52.302;7.964;2023-12-14T02:41:59;23.67;;;14.63;;
27580;SDS011;63557;52.302;7.964;2023-12-14T02:47:00;24.92;;;15.10;;
27580;SDS011;63557;52.302;7.964;2023-12-14T02:52:00;23.30;;;14.70;;
27580;SDS011;63557;52.302;7.964;2023-12-14T02:57:00;24.60;;;14.93;;
27580;SDS011;63557;52.302;7.964;2023-12-14T03:02:01;27.63;;;15.57;;
27580;SDS011;63557;52.302;7.964;2023-12-14T03:07:01;24.33;;;15.68;;
27580;SDS011;63557;52.302;7.964;2023-12-14T03:12:02;25.48;;;15.10;;
27580;SDS011;63557;52.302;7.964;2023-12-14T03:17:03;23.88;;;14.20;;
27580;SDS011;63557;52.302;7.964;2023-12-14T03:22:03;29.50;;;16.70;;
27580;SDS011;63557;52.302;7.964;2023-12-14T03:27:04;23.75;;;15.35;;
27580;SDS011;63557;52.302;7.964;2023-12-14T03:32:04;29.33;;;17.40;;
27580;SDS011;63557;52.302;7.964;2023-12-14T03:37:05;29.20;;;17.02;;
27580;SDS011;63557;52.302;7.964;2023-12-14T03:42:05;34.27;;;18.07;;
27580;SDS011;63557;52.302;7.964;2023-12-14T03:47:05;30.88;;;17.38;;
27580;SDS011;63557;52.302;7.964;2023-12-14T03:52:06;33.10;;;17.43;;
27580;SDS011;63557;52.302;7.964;2023-12-14T03:57:06;26.40;;;17.17;;
27580;SDS011;63557;52.302;7.964;2023-12-14T04:02:06;26.30;;;16.33;;
27580;SDS011;63557;52.302;7.964;2023-12-14T04:07:09;25.50;;;16.50;;
27580;SDS011;63557;52.302;7.964;2023-12-14T04:12:10;25.05;;;15.57;;
27580;SDS011;63557;52.302;7.964;2023-12-14T04:17:10;26.00;;;16.23;;
27580;SDS011;63557;52.302;7.964;2023-12-14T04:22:12;25.73;;;15.35;;
27580;SDS011;63557;52.302;7.964;2023-12-14T04:27:12;24.58;;;15.70;;
27580;SDS011;63557;52.302;7.964;2023-12-14T04:32:12;24.92;;;15.88;;
27580;SDS011;63557;52.302;7.964;2023-12-14T04:37:13;26.57;;;16.87;;
27580;SDS011;63557;52.302;7.964;2023-12-14T04:42:13;28.13;;;17.97;;
27580;SDS011;63557;52.302;7.964;2023-12-14T04:47:14;30.92;;;20.67;;
27580;SDS011;63557;52.302;7.964;2023-12-14T04:52:14;30.13;;;19.42;;
27580;SDS011;63557;52.302;7.964;2023-12-14T04:57:15;27.48;;;18.75;;
27580;SDS011;63557;52.302;7.964;2023-12-14T05:02:15;26.02;;;17.42;;
27580;SDS011;63557;52.302;7.964;2023-12-14T05:07:15;27.33;;;17.85;;
27580;SDS011;63557;52.302;7.964;2023-12-14T05:12:16;23.27;;;15.95;;
27580;SDS011;63557;52.302;7.964;2023-12-14T05:17:16;23.70;;;15.50;;
27580;SDS011;63557;52.302;7.964;2023-12-14T05:22:17;21.20;;;15.73;;
27580;SDS011;63557;52.302;7.964;2023-12-14T05:27:17;21.23;;;14.87;;
27580;SDS011;63557;52.302;7.964;2023-12-14T05:32:17;21.88;;;14.95;;
27580;SDS011;63557;52.302;7.964;2023-12-14T05:37:18;20.17;;;15.37;;
27580;SDS011;63557;52.302;7.964;2023-12-14T05:42:18;23.80;;;15.98;;
27580;SDS011;63557;52.302;7.964;2023-12-14T05:47:19;22.05;;;15.38;;
27580;SDS011;63557;52.302;7.964;2023-12-14T05:52:19;25.13;;;16.37;;
27580;SDS011;63557;52.302;7.964;2023-12-14T05:57:19;19.20;;;14.87;;
27580;SDS011;63557;52.302;7.964;2023-12-14T06:02:20;20.42;;;14.80;;
27580;SDS011;63557;52.302;7.964;2023-12-14T06:07:20;19.98;;;14.40;;
27580;SDS011;63557;52.302;7.964;2023-12-14T06:12:21;21.00;;;14.50;;
27580;SDS011;63557;52.302;7.964;2023-12-14T06:17:21;20.80;;;14.73;;
27580;SDS011;63557;52.302;7.964;2023-12-14T06:22:21;21.10;;;15.00;;
27580;SDS011;63557;52.302;7.964;2023-12-14T06:27:22;23.07;;;14.90;;
27580;SDS011;63557;52.302;7.964;2023-12-14T06:32:26;21.10;;;14.93;;
27580;SDS011;63557;52.302;7.964;2023-12-14T06:37:27;20.20;;;14.23;;
27580;SDS011;63557;52.302;7.964;2023-12-14T06:42:27;23.87;;;15.47;;
27580;SDS011;63557;52.302;7.964;2023-12-14T06:47:28;22.23;;;16.50;;
27580;SDS011;63557;52.302;7.964;2023-12-14T06:52:28;21.23;;;16.13;;
27580;SDS011;63557;52.302;7.964;2023-12-14T06:57:29;26.55;;;16.88;;
27580;SDS011;63557;52.302;7.964;2023-12-14T07:02:30;24.73;;;16.70;;
27580;SDS011;63557;52.302;7.964;2023-12-14T07:07:30;25.20;;;17.73;;
27580;SDS011;63557;52.302;7.964;2023-12-14T07:12:30;23.80;;;16.90;;
27580;SDS011;63557;52.302;7.964;2023-12-14T07:17:31;24.83;;;17.17;;
27580;SDS011;63557;52.302;7.964;2023-12-14T07:22:31;25.57;;;15.53;;
27580;SDS011;63557;52.302;7.964;2023-12-14T07:27:32;22.75;;;15.80;;
27580;SDS011;63557;52.302;7.964;2023-12-14T07:32:32;18.38;;;13.38;;
27580;SDS011;63557;52.302;7.964;2023-12-14T07:37:32;23.73;;;15.97;;
27580;SDS011;63557;52.302;7.964;2023-12-14T07:42:33;19.63;;;14.38;;
27580;SDS011;63557;52.302;7.964;2023-12-14T07:47:33;19.10;;;14.35;;
27580;SDS011;63557;52.302;7.964;2023-12-14T07:52:34;22.57;;;15.30;;
27580;SDS011;63557;52.302;7.964;2023-12-14T07:57:35;20.10;;;14.05;;
27580;SDS011;63557;52.302;7.964;2023-12-14T08:02:35;20.97;;;14.90;;
27580;SDS011;63557;52.302;7.964;2023-12-14T08:07:35;20.27;;;14.85;;
27580;SDS011;63557;52.302;7.964;2023-12-14T08:12:36;21.92;;;14.80;;
27580;SDS011;63557;52.302;7.964;2023-12-14T08:17:36;23.23;;;15.38;;
27580;SDS011;63557;52.302;7.964;2023-12-14T08:22:37;20.67;;;14.95;;
27580;SDS011;63557;52.302;7.964;2023-12-14T08:27:37;22.67;;;16.10;;
27580;SDS011;63557;52.302;7.964;2023-12-14T08:32:38;24.02;;;16.80;;
27580;SDS011;63557;52.302;7.964;2023-12-14T08:37:38;21.70;;;16.00;;
27580;SDS011;63557;52.302;7.964;2023-12-14T08:42:38;21.90;;;16.15;;
27580;SDS011;63557;52.302;7.964;2023-12-14T08:47:39;25.13;;;16.58;;
27580;SDS011;63557;52.302;7.964;2023-12-14T08:52:39;27.02;;;17.50;;
27580;SDS011;63557;52.302;7.964;2023-12-14T08:57:40;23.65;;;17.85;;
27580;SDS011;63557;52.302;7.964;2023-12-14T09:02:40;23.73;;;16.47;;
27580;SDS011;63557;52.302;7.964;2023-12-14T09:07:40;23.87;;;16.47;;
27580;SDS011;63557;52.302;7.964;2023-12-14T09:12:41;23.70;;;18.33;;
27580;SDS011;63557;52.302;7.964;2023-12-14T09:17:41;29.13;;;18.50;;
27580;SDS011;63557;52.302;7.964;2023-12-14T09:22:43;27.65;;;18.27;;
27580;SDS011;63557;52.302;7.964;2023-12-14T09:27:43;25.95;;;18.25;;
27580;SDS011;63557;52.302;7.964;2023-12-14T09:32:43;27.10;;;19.07;;
27580;SDS011;63557;52.302;7.964;2023-12-14T09:37:44;24.48;;;18.70;;
27580;SDS011;63557;52.302;7.964;2023-12-14T09:42:44;29.70;;;18.47;;
27580;SDS011;63557;52.302;7.964;2023-12-14T09:47:45;24.13;;;17.55;;
27580;SDS011;63557;52.302;7.964;2023-12-14T09:52:46;23.48;;;17.60;;
27580;SDS011;63557;52.302;7.964;2023-12-14T09:57:49;27.83;;;18.25;;
27580;SDS011;63557;52.302;7.964;2023-12-14T10:02:49;25.17;;;18.23;;
27580;SDS011;63557;52.302;7.964;2023-12-14T10:07:50;29.70;;;18.95;;
27580;SDS011;63557;52.302;7.964;2023-12-14T10:12:52;26.60;;;17.10;;
27580;SDS011;63557;52.302;7.964;2023-12-14T10:17:53;25.05;;;17.88;;
27580;SDS011;63557;52.302;7.964;2023-12-14T10:22:54;25.52;;;18.15;;
27580;SDS011;63557;52.302;7.964;2023-12-14T10:27:56;22.77;;;16.23;;
27580;SDS011;63557;52.302;7.964;2023-12-14T10:32:57;19.30;;;14.60;;
27580;SDS011;63557;52.302;7.964;2023-12-14T10:37:58;26.90;;;17.10;;
27580;SDS011;63557;52.302;7.964;2023-12-14T10:43:01;23.75;;;18.10;;
27580;SDS011;63557;52.302;7.964;2023-12-14T10:48:04;23.10;;;17.67;;
27580;SDS011;63557;52.302;7.964;2023-12-14T10:53:05;24.10;;;16.90;;
27580;SDS011;63557;52.302;7.964;2023-12-14T10:58:07;26.35;;;18.17;;
27580;SDS011;63557;52.302;7.964;2023-12-14T11:03:12;22.08;;;17.20;;
27580;SDS011;63557;52.302;7.964;2023-12-14T11:08:12;24.70;;;17.90;;
27580;SDS011;63557;52.302;7.964;2023-12-14T11:13:15;28.92;;;18.67;;
27580;SDS011;63557;52.302;7.964;2023-12-14T11:23:26;24.58;;;18.30;;
27580;SDS011;63557;52.302;7.964;2023-12-14T11:28:29;22.95;;;18.50;;
27580;SDS011;63557;52.302;7.964;2023-12-14T11:33:31;25.05;;;18.40;;
27580;SDS011;63557;52.302;7.964;2023-12-14T11:38:31;28.73;;;20.25;;
27580;SDS011;63557;52.302;7.964;2023-12-14T11:43:42;27.00;;;18.85;;
27580;SDS011;63557;52.302;7.964;2023-12-14T11:48:46;28.83;;;19.08;;
27580;SDS011;63557;52.302;7.964;2023-12-14T11:53:47;28.67;;;19.80;;
27580;SDS011;63557;52.302;7.964;2023-12-14T11:58:50;27.73;;;18.90;;
27580;SDS011;63557;52.302;7.964;2023-12-14T12:03:51;29.67;;;20.02;;
27580;SDS011;63557;52.302;7.964;2023-12-14T12:08:51;30.90;;;20.02;;
27580;SDS011;63557;52.302;7.964;2023-12-14T12:13:52;36.28;;;21.90;;
27580;SDS011;63557;52.302;7.964;2023-12-14T12:18:53;29.13;;;19.73;;
27580;SDS011;63557;52.302;7.964;2023-12-14T12:23:53;27.73;;;18.20;;
27580;SDS011;63557;52.302;7.964;2023-12-14T12:28:54;46.70;;;28.63;;
27580;SDS011;63557;52.302;7.964;2023-12-14T12:33:54;29.90;;;19.27;;
27580;SDS011;63557;52.302;7.964;2023-12-14T12:38:55;31.05;;;18.95;;
27580;SDS011;63557;52.302;7.964;2023-12-14T12:43:55;30.67;;;19.37;;
27580;SDS011;63557;52.302;7.964;2023-12-14T12:48:55;29.77;;;18.30;;
27580;SDS011;63557;52.302;7.964;2023-12-14T12:53:56;33.33;;;20.03;;
27580;SDS011;63557;52.302;7.964;2023-12-14T12:58:57;27.23;;;18.40;;
27580;SDS011;63557;52.302;7.964;2023-12-14T13:03:57;30.50;;;18.05;;
27580;SDS011;63557;52.302;7.964;2023-12-14T13:08:59;30.92;;;18.65;;
27580;SDS011;63557;52.302;7.964;2023-12-14T13:13:59;30.27;;;19.33;;
27580;SDS011;63557;52.302;7.964;2023-12-14T13:19:02;30.67;;;17.60;;
27580;SDS011;63557;52.302;7.964;2023-12-14T13:24:04;32.30;;;17.48;;
27580;SDS011;63557;52.302;7.964;2023-12-14T13:29:04;31.75;;;18.20;;
27580;SDS011;63557;52.302;7.964;2023-12-14T13:34:05;31.80;;;17.33;;
27580;SDS011;63557;52.302;7.964;2023-12-14T13:39:05;29.03;;;17.37;;
27580;SDS011;63557;52.302;7.964;2023-12-14T13:44:06;25.77;;;16.90;;
27580;SDS011;63557;52.302;7.964;2023-12-14T13:49:06;33.90;;;18.17;;
27580;SDS011;63557;52.302;7.964;2023-12-14T13:54:07;29.47;;;18.20;;
27580;SDS011;63557;52.302;7.964;2023-12-14T13:59:07;27.73;;;16.08;;
27580;SDS011;63557;52.302;7.964;2023-12-14T14:04:08;29.95;;;18.35;;
27580;SDS011;63557;52.302;7.964;2023-12-14T14:09:09;30.92;;;17.92;;
27580;SDS011;63557;52.302;7.964;2023-12-14T14:14:11;33.15;;;17.98;;
27580;SDS011;63557;52.302;7.964;2023-12-14T14:19:11;33.92;;;19.48;;
27580;SDS011;63557;52.302;7.964;2023-12-14T14:24:11;32.13;;;19.53;;
27580;SDS011;63557;52.302;7.964;2023-12-14T14:29:12;49.17;;;28.77;;
27580;SDS011;63557;52.302;7.964;2023-12-14T14:34:12;80.63;;;48.63;;
27580;SDS011;63557;52.302;7.964;2023-12-14T14:39:13;67.30;;;40.80;;
27580;SDS011;63557;52.302;7.964;2023-12-14T14:44:13;39.50;;;24.00;;
27580;SDS011;63557;52.302;7.964;2023-12-14T14:49:13;37.87;;;21.63;;
27580;SDS011;63557;52.302;7.964;2023-12-14T14:54:14;36.43;;;21.97;;
27580;SDS011;63557;52.302;7.964;2023-12-14T14:59:14;54.20;;;33.58;;
27580;SDS011;63557;52.302;7.964;2023-12-14T15:04:15;50.05;;;30.38;;
27580;SDS011;63557;52.302;7.964;2023-12-14T15:09:16;37.25;;;21.08;;
27580;SDS011;63557;52.302;7.964;2023-12-14T15:14:16;57.20;;;32.40;;
27580;SDS011;63557;52.302;7.964;2023-12-14T15:19:17;59.55;;;32.13;;
27580;SDS011;63557;52.302;7.964;2023-12-14T15:24:17;43.28;;;21.13;;
27580;SDS011;63557;52.302;7.964;2023-12-14T15:29:18;42.80;;;21.43;;
27580;SDS011;63557;52.302;7.964;2023-12-14T15:34:18;43.85;;;21.30;;
27580;SDS011;63557;52.302;7.964;2023-12-14T15:39:18;39.17;;;19.40;;
27580;SDS011;63557;52.302;7.964;2023-12-14T15:44:19;36.57;;;20.10;;
27580;SDS011;63557;52.302;7.964;2023-12-14T15:49:19;40.55;;;19.27;;
27580;SDS011;63557;52.302;7.964;2023-12-14T15:54:20;35.47;;;20.53;;
27580;SDS011;63557;52.302;7.964;2023-12-14T15:59:20;37.27;;;19.87;;
27580;SDS011;63557;52.302;7.964;2023-12-14T16:04:21;37.93;;;20.30;;
27580;SDS011;63557;52.302;7.964;2023-12-14T16:09:21;41.63;;;20.50;;
27580;SDS011;63557;52.302;7.964;2023-12-14T16:14:21;42.03;;;20.87;;
27580;SDS011;63557;52.302;7.964;2023-12-14T16:19:22;39.80;;;20.63;;
27580;SDS011;63557;52.302;7.964;2023-12-14T16:24:22;40.33;;;21.73;;
27580;SDS011;63557;52.302;7.964;2023-12-14T16:29:24;39.47;;;21.85;;
27580;SDS011;63557;52.302;7.964;2023-12-14T16:34:24;40.53;;;21.17;;
27580;SDS011;63557;52.302;7.964;2023-12-14T16:39:25;38.95;;;21.45;;
27580;SDS011;63557;52.302;7.964;2023-12-14T16:44:27;38.33;;;21.77;;
27580;SDS011;63557;52.302;7.964;2023-12-14T16:49:28;41.63;;;23.40;;
27580;SDS011;63557;52.302;7.964;2023-12-14T16:54:28;41.93;;;23.97;;
27580;SDS011;63557;52.302;7.964;2023-12-14T16:59:28;43.77;;;23.67;;
27580;SDS011;63557;52.302;7.964;2023-12-14T17:04:29;41.50;;;21.13;;
27580;SDS011;63557;52.302;7.964;2023-12-14T17:09:29;41.25;;;22.27;;
27580;SDS011;63557;52.302;7.964;2023-12-14T17:14:30;44.70;;;26.15;;
27580;SDS011;63557;52.302;7.964;2023-12-14T17:19:30;35.25;;;20.25;;
27580;SDS011;63557;52.302;7.964;2023-12-14T17:24:31;41.50;;;21.52;;
27580;SDS011;63557;52.302;7.964;2023-12-14T17:29:31;56.30;;;28.38;;
27580;SDS011;63557;52.302;7.964;2023-12-14T17:34:32;46.97;;;24.67;;
27580;SDS011;63557;52.302;7.964;2023-12-14T17:39:32;41.10;;;22.73;;
27580;SDS011;63557;52.302;7.964;2023-12-14T17:44:33;38.22;;;20.65;;
27580;SDS011;63557;52.302;7.964;2023-12-14T17:49:34;42.03;;;23.13;;
27580;SDS011;63557;52.302;7.964;2023-12-14T17:54:36;41.88;;;21.17;;
27580;SDS011;63557;52.302;7.964;2023-12-14T17:59:40;41.25;;;22.40;;
27580;SDS011;63557;52.302;7.964;2023-12-14T18:04:40;56.50;;;32.72;;
27580;SDS011;63557;52.302;7.964;2023-12-14T18:09:41;44.33;;;23.45;;
27580;SDS011;63557;52.302;7.964;2023-12-14T18:14:41;47.97;;;24.67;;
27580;SDS011;63557;52.302;7.964;2023-12-14T18:19:41;47.07;;;26.63;;
27580;SDS011;63557;52.302;7.964;2023-12-14T18:24:42;44.67;;;25.07;;
27580;SDS011;63557;52.302;7.964;2023-12-14T18:29:42;48.57;;;24.17;;
27580;SDS011;63557;52.302;7.964;2023-12-14T18:34:43;43.17;;;23.27;;
27580;SDS011;63557;52.302;7.964;2023-12-14T18:39:43;42.77;;;22.97;;
27580;SDS011;63557;52.302;7.964;2023-12-14T18:44:44;42.92;;;21.67;;
27580;SDS011;63557;52.302;7.964;2023-12-14T18:49:44;44.83;;;22.67;;
27580;SDS011;63557;52.302;7.964;2023-12-14T18:54:46;39.88;;;21.15;;
27580;SDS011;63557;52.302;7.964;2023-12-14T18:59:46;45.42;;;22.80;;
27580;SDS011;63557;52.302;7.964;2023-12-14T19:04:47;39.75;;;21.63;;
27580;SDS011;63557;52.302;7.964;2023-12-14T19:09:47;45.23;;;22.23;;
27580;SDS011;63557;52.302;7.964;2023-12-14T19:14:47;55.72;;;27.55;;
27580;SDS011;63557;52.302;7.964;2023-12-14T19:19:48;75.78;;;36.22;;
27580;SDS011;63557;52.302;7.964;2023-12-14T19:24:49;55.80;;;28.38;;
27580;SDS011;63557;52.302;7.964;2023-12-14T19:29:50;50.28;;;24.33;;
27580;SDS011;63557;52.302;7.964;2023-12-14T19:34:50;51.10;;;24.73;;
27580;SDS011;63557;52.302;7.964;2023-12-14T19:39:51;49.05;;;24.58;;
27580;SDS011;63557;52.302;7.964;2023-12-14T19:44:52;50.93;;;26.53;;
27580;SDS011;63557;52.302;7.964;2023-12-14T19:49:52;54.47;;;27.55;;
27580;SDS011;63557;52.302;7.964;2023-12-14T19:54:53;51.75;;;26.30;;
27580;SDS011;63557;52.302;7.964;2023-12-14T19:59:53;56.50;;;28.75;;
27580;SDS011;63557;52.302;7.964;2023-12-14T20:04:53;56.47;;;28.53;;
27580;SDS011;63557;52.302;7.964;2023-12-14T20:09:54;60.03;;;30.63;;
27580;SDS011;63557;52.302;7.964;2023-12-14T20:14:54;58.95;;;28.95;;
27580;SDS011;63557;52.302;7.964;2023-12-14T20:19:54;53.67;;;27.13;;
27580;SDS011;63557;52.302;7.964;2023-12-14T20:24:55;53.80;;;27.93;;
27580;SDS011;63557;52.302;7.964;2023-12-14T20:29:55;73.37;;;34.17;;
27580;SDS011;63557;52.302;7.964;2023-12-14T20:34:56;60.88;;;28.23;;
27580;SDS011;63557;52.302;7.964;2023-12-14T20:39:56;56.00;;;28.55;;
27580;SDS011;63557;52.302;7.964;2023-12-14T20:44:57;60.40;;;27.70;;
27580;SDS011;63557;52.302;7.964;2023-12-14T20:49:57;55.00;;;27.93;;
27580;SDS011;63557;52.302;7.964;2023-12-14T20:54:58;57.72;;;27.25;;
27580;SDS011;63557;52.302;7.964;2023-12-14T20:59:58;56.25;;;27.08;;
27580;SDS011;63557;52.302;7.964;2023-12-14T21:04:58;64.15;;;29.90;;
27580;SDS011;63557;52.302;7.964;2023-12-14T21:09:59;59.97;;;27.97;;
27580;SDS011;63557;52.302;7.964;2023-12-14T21:14:59;54.53;;;28.52;;
27580;SDS011;63557;52.302;7.964;2023-12-14T21:20:00;52.05;;;26.80;;
27580;SDS011;63557;52.302;7.964;2023-12-14T21:25:01;50.73;;;27.03;;
27580;SDS011;63557;52.302;7.964;2023-12-14T21:30:03;58.88;;;26.90;;
27580;SDS011;63557;52.302;7.964;2023-12-14T21:35:04;59.35;;;27.38;;
27580;SDS011;63557;52.302;7.964;2023-12-14T21:40:05;52.53;;;26.95;;
27580;SDS011;63557;52.302;7.964;2023-12-14T21:45:06;65.32;;;32.28;;
27580;SDS011;63557;52.302;7.964;2023-12-14T21:50:07;80.10;;;39.45;;
27580;SDS011;63557;52.302;7.964;2023-12-14T21:55:07;51.33;;;26.73;;
27580;SDS011;63557;52.302;7.964;2023-12-14T22:00:08;48.28;;;26.25;;
27580;SDS011;63557;52.302;7.964;2023-12-14T22:05:08;53.95;;;26.95;;
27580;SDS011;63557;52.302;7.964;2023-12-14T22:10:09;52.90;;;26.15;;
27580;SDS011;63557;52.302;7.964;2023-12-14T22:15:15;58.67;;;26.73;;
27580;SDS011;63557;52.302;7.964;2023-12-14T22:20:16;48.65;;;25.73;;
27580;SDS011;63557;52.302;7.964;2023-12-14T22:25:16;51.95;;;26.10;;
27580;SDS011;63557;52.302;7.964;2023-12-14T22:30:16;50.13;;;25.53;;
27580;SDS011;63557;52.302;7.964;2023-12-14T22:35:17;50.22;;;25.08;;
27580;SDS011;63557;52.302;7.964;2023-12-14T22:40:18;55.83;;;26.77;;
27580;SDS011;63557;52.302;7.964;2023-12-14T22:45:18;50.70;;;25.10;;
27580;SDS011;63557;52.302;7.964;2023-12-14T22:50:19;48.72;;;23.98;;
27580;SDS011;63557;52.302;7.964;2023-12-14T22:55:20;55.08;;;27.45;;
27580;SDS011;63557;52.302;7.964;2023-12-14T23:00:20;49.03;;;24.85;;
27580;SDS011;63557;52.302;7.964;2023-12-14T23:05:24;49.63;;;25.70;;
27580;SDS011;63557;52.302;7.964;2023-12-14T23:10:25;51.27;;;25.27;;
27580;SDS011;63557;52.302;7.964;2023-12-14T23:15:25;57.10;;;28.43;;
27580;SDS011;63557;52.302;7.964;2023-12-14T23:20:25;51.93;;;24.00;;
27580;SDS011;63557;52.302;7.964;2023-12-14T23:25:26;53.83;;;26.17;;
27580;SDS011;63557;52.302;7.964;2023-12-14T23:30:28;54.83;;;25.98;;
27580;SDS011;63557;52.302;7.964;2023-12-14T23:35:28;57.10;;;27.17;;
27580;SDS011;63557;52.302;7.964;2023-12-14T23:40:29;58.33;;;27.80;;
27580;SDS011;63557;52.302;7.964;2023-12-14T23:45:29;66.15;;;29.35;;
27580;SDS011;63557;52.302;7.964;2023-12-14T23:50:29;60.67;;;29.17;;
27580;SDS011;63557;52.302;7.964;2023-12-14T23:55:30;58.45;;;28.20;;
